createdAt,value
2022-08-25T00:00:01.000Z,0
2022-08-25T00:01:17.000Z,0
2022-08-25T00:02:33.000Z,0
2022-08-25T00:03:49.000Z,0
2022-08-25T00:05:05.000Z,0
2022-08-25T00:06:21.000Z,0
2022-08-25T00:07:37.000Z,0
2022-08-25T00:08:53.000Z,0
2022-08-25T00:10:09.000Z,0
2022-08-25T00:11:25.000Z,0
2022-08-25T00:12:42.000Z,0
2022-08-25T00:13:58.000Z,0
2022-08-25T00:15:14.000Z,0
2022-08-25T00:16:30.000Z,0
2022-08-25T00:17:46.000Z,0
2022-08-25T00:19:02.000Z,0
2022-08-25T00:20:19.000Z,0
2022-08-25T00:21:35.000Z,0
2022-08-25T00:22:50.790Z,0
2022-08-25T00:24:06.000Z,0
2022-08-25T00:25:22.000Z,0
2022-08-25T00:26:39.000Z,0
2022-08-25T00:27:55.000Z,0
2022-08-25T00:29:11.000Z,0
2022-08-25T00:30:27.000Z,0
2022-08-25T00:31:43.000Z,0
2022-08-25T00:33:00.000Z,0
2022-08-25T00:34:16.000Z,0
2022-08-25T00:35:32.000Z,0
2022-08-25T00:36:48.000Z,0
2022-08-25T00:38:04.000Z,0
2022-08-25T00:39:20.000Z,0
2022-08-25T00:40:36.000Z,0
2022-08-25T00:41:52.000Z,0
2022-08-25T00:43:08.000Z,0
2022-08-25T00:44:24.000Z,0
2022-08-25T00:45:40.000Z,0
2022-08-25T00:46:57.000Z,0
2022-08-25T00:48:13.000Z,0
2022-08-25T00:49:29.000Z,0
2022-08-25T00:50:45.000Z,0
2022-08-25T00:52:01.000Z,0
2022-08-25T00:53:18.000Z,0
2022-08-25T00:54:34.000Z,0
2022-08-25T00:55:49.000Z,0
2022-08-25T00:57:05.000Z,0
2022-08-25T00:58:21.000Z,0
2022-08-25T00:59:38.000Z,0
2022-08-25T01:00:54.000Z,0
2022-08-25T01:02:10.000Z,0
2022-08-25T01:03:26.000Z,0
2022-08-25T01:04:42.000Z,0
2022-08-25T01:05:59.000Z,0
2022-08-25T01:07:15.000Z,0
2022-08-25T01:08:31.000Z,0
2022-08-25T01:09:47.000Z,0
2022-08-25T01:11:03.000Z,0
2022-08-25T01:12:18.000Z,0
2022-08-25T01:13:35.000Z,0
2022-08-25T01:14:51.000Z,0
2022-08-25T01:16:07.000Z,0
2022-08-25T01:17:23.000Z,0
2022-08-25T01:18:39.000Z,0
2022-08-25T01:19:56.000Z,0
2022-08-25T01:21:12.000Z,0
2022-08-25T01:22:28.000Z,0
2022-08-25T01:23:44.000Z,0
2022-08-25T01:25:00.000Z,0
2022-08-25T01:26:17.000Z,0
2022-08-25T01:27:33.000Z,0
2022-08-25T01:28:48.000Z,0
2022-08-25T01:30:04.000Z,0
2022-08-25T01:31:20.000Z,0
2022-08-25T01:32:36.000Z,0
2022-08-25T01:33:53.000Z,0
2022-08-25T01:35:09.000Z,0
2022-08-25T01:36:25.000Z,0
2022-08-25T01:37:41.000Z,0
2022-08-25T01:38:57.000Z,0
2022-08-25T01:40:14.000Z,0
2022-08-25T01:41:30.000Z,0
2022-08-25T01:42:46.000Z,0
2022-08-25T01:44:02.000Z,0
2022-08-25T01:45:17.000Z,0
2022-08-25T01:46:34.000Z,0
2022-08-25T01:47:50.000Z,0
2022-08-25T01:49:06.000Z,0
2022-08-25T01:50:22.000Z,0
2022-08-25T01:51:38.000Z,0
2022-08-25T01:52:55.000Z,0
2022-08-25T01:54:11.000Z,0
2022-08-25T01:55:27.000Z,0
2022-08-25T01:56:43.000Z,0
2022-08-25T01:57:59.000Z,0
2022-08-25T01:59:15.000Z,0
2022-08-25T02:00:32.000Z,0
2022-08-25T02:01:47.000Z,0
2022-08-25T02:03:03.000Z,0
2022-08-25T02:04:19.000Z,0
2022-08-25T02:05:35.000Z,0
2022-08-25T02:06:52.000Z,0
2022-08-25T02:08:08.000Z,0
2022-08-25T02:09:24.000Z,0
2022-08-25T02:10:40.000Z,0
2022-08-25T02:11:56.000Z,0
2022-08-25T02:13:13.000Z,0
2022-08-25T02:14:29.000Z,0
2022-08-25T02:15:45.000Z,0
2022-08-25T02:17:01.000Z,0
2022-08-25T02:18:16.000Z,0
2022-08-25T02:19:33.000Z,0
2022-08-25T02:20:49.000Z,0
2022-08-25T02:22:05.000Z,0
2022-08-25T02:23:21.000Z,0
2022-08-25T02:24:37.000Z,0
2022-08-25T02:25:53.000Z,0
2022-08-25T02:27:10.000Z,0
2022-08-25T02:28:26.000Z,0
2022-08-25T02:29:42.000Z,0
2022-08-25T02:30:58.000Z,0
2022-08-25T02:32:14.000Z,0
2022-08-25T02:33:31.000Z,0
2022-08-25T02:34:46.000Z,0
2022-08-25T02:36:02.000Z,0
2022-08-25T02:37:18.000Z,0
2022-08-25T02:38:34.000Z,0
2022-08-25T02:39:51.000Z,0
2022-08-25T02:41:07.000Z,0
2022-08-25T02:42:23.000Z,0
2022-08-25T02:43:39.000Z,0
2022-08-25T02:44:55.000Z,0
2022-08-25T02:46:11.000Z,0
2022-08-25T02:47:28.000Z,0
2022-08-25T02:48:44.000Z,0
2022-08-25T02:50:00.000Z,0
2022-08-25T02:51:15.000Z,0
2022-08-25T02:52:31.000Z,0
2022-08-25T02:53:48.000Z,0
2022-08-25T02:55:04.000Z,0
2022-08-25T02:56:20.000Z,0
2022-08-25T02:57:36.000Z,0
2022-08-25T02:58:51.000Z,0
2022-08-25T03:00:08.000Z,0
2022-08-25T03:01:24.000Z,0
2022-08-25T03:02:40.000Z,0
2022-08-25T03:03:56.000Z,0
2022-08-25T03:05:12.000Z,0
2022-08-25T03:06:29.000Z,0
2022-08-25T03:07:45.000Z,0
2022-08-25T03:09:01.000Z,0
2022-08-25T03:10:17.000Z,0
2022-08-25T03:11:33.000Z,0
2022-08-25T03:12:49.000Z,0
2022-08-25T03:14:06.000Z,0
2022-08-25T03:15:21.000Z,0
2022-08-25T03:16:37.000Z,0
2022-08-25T03:17:53.000Z,0
2022-08-25T03:19:09.000Z,0
2022-08-25T03:20:26.000Z,0
2022-08-25T03:21:42.000Z,0
2022-08-25T03:22:58.000Z,0
2022-08-25T03:24:14.000Z,0
2022-08-25T03:25:30.000Z,0
2022-08-25T03:26:47.000Z,0
2022-08-25T03:28:03.000Z,0
2022-08-25T03:29:19.000Z,0
2022-08-25T03:30:35.000Z,0
2022-08-25T03:31:50.000Z,0
2022-08-25T03:33:07.000Z,0
2022-08-25T03:34:23.000Z,0
2022-08-25T03:35:39.000Z,0
2022-08-25T03:36:55.840Z,0
2022-08-25T03:38:11.000Z,0
2022-08-25T03:39:27.000Z,0
2022-08-25T03:40:44.000Z,0
2022-08-25T03:42:00.000Z,0
2022-08-25T03:43:16.000Z,0
2022-08-25T03:44:32.000Z,0
2022-08-25T03:45:48.000Z,0
2022-08-25T03:47:05.000Z,0
2022-08-25T03:48:20.000Z,0
2022-08-25T03:49:36.000Z,0
2022-08-25T03:50:52.000Z,0
2022-08-25T03:52:08.000Z,0
2022-08-25T03:53:25.000Z,0
2022-08-25T03:54:41.000Z,0
2022-08-25T03:55:57.000Z,0
2022-08-25T03:57:13.000Z,0
2022-08-25T03:58:29.000Z,0
2022-08-25T03:59:46.000Z,0
2022-08-25T04:01:02.000Z,0
2022-08-25T04:02:18.000Z,0
2022-08-25T04:03:34.000Z,0
2022-08-25T04:04:49.000Z,0
2022-08-25T04:06:05.000Z,0
2022-08-25T04:07:22.000Z,0
2022-08-25T04:08:38.000Z,0
2022-08-25T04:09:54.000Z,0
2022-08-25T04:11:10.000Z,0
2022-08-25T04:12:26.000Z,0
2022-08-25T04:13:43.000Z,0
2022-08-25T04:14:59.000Z,0
2022-08-25T04:16:15.000Z,0
2022-08-25T04:17:31.000Z,5
2022-08-25T04:18:47.000Z,5
2022-08-25T04:20:04.000Z,5
2022-08-25T04:21:19.000Z,5
2022-08-25T04:22:35.000Z,5
2022-08-25T04:23:51.000Z,5
2022-08-25T04:25:07.000Z,11
2022-08-25T04:26:24.000Z,11
2022-08-25T04:27:40.000Z,11
2022-08-25T04:28:56.000Z,16
2022-08-25T04:30:12.000Z,16
2022-08-25T04:31:28.000Z,16
2022-08-25T04:32:44.000Z,22
2022-08-25T04:34:01.000Z,22
2022-08-25T04:35:17.000Z,28
2022-08-25T04:36:33.000Z,28
2022-08-25T04:37:48.000Z,28
2022-08-25T04:39:04.000Z,33
2022-08-25T04:40:21.000Z,33
2022-08-25T04:41:37.000Z,39
2022-08-25T04:42:53.000Z,39
2022-08-25T04:44:09.000Z,45
2022-08-25T04:45:25.000Z,50
2022-08-25T04:46:42.000Z,50
2022-08-25T04:47:58.000Z,56
2022-08-25T04:49:14.000Z,61
2022-08-25T04:50:30.000Z,101
2022-08-25T04:51:46.000Z,157
2022-08-25T04:53:02.000Z,106
2022-08-25T04:54:18.000Z,84
2022-08-25T04:55:34.000Z,84
2022-08-25T04:56:50.000Z,90
2022-08-25T04:58:06.000Z,123
2022-08-25T04:59:22.000Z,213
2022-08-25T05:00:39.000Z,253
2022-08-25T05:01:55.000Z,202
2022-08-25T05:03:11.000Z,146
2022-08-25T05:04:27.000Z,140
2022-08-25T05:05:43.000Z,225
2022-08-25T05:07:00.000Z,292
2022-08-25T05:08:16.000Z,298
2022-08-25T05:09:32.000Z,298
2022-08-25T05:10:47.000Z,292
2022-08-25T05:12:03.000Z,298
2022-08-25T05:13:20.000Z,264
2022-08-25T05:14:36.000Z,180
2022-08-25T05:15:52.000Z,180
2022-08-25T05:17:08.000Z,270
2022-08-25T05:18:24.000Z,315
2022-08-25T05:19:40.000Z,331
2022-08-25T05:20:57.000Z,331
2022-08-25T05:22:13.000Z,331
2022-08-25T05:23:29.000Z,337
2022-08-25T05:24:45.000Z,348
2022-08-25T05:26:01.000Z,348
2022-08-25T05:27:17.000Z,337
2022-08-25T05:28:33.000Z,258
2022-08-25T05:29:49.000Z,185
2022-08-25T05:31:05.000Z,180
2022-08-25T05:32:21.000Z,180
2022-08-25T05:33:38.000Z,185
2022-08-25T05:34:54.000Z,191
2022-08-25T05:36:10.000Z,275
2022-08-25T05:37:26.000Z,365
2022-08-25T05:38:42.000Z,382
2022-08-25T05:39:59.000Z,388
2022-08-25T05:41:15.000Z,405
2022-08-25T05:42:31.000Z,405
2022-08-25T05:43:46.000Z,343
2022-08-25T05:45:02.000Z,225
2022-08-25T05:46:18.000Z,286
2022-08-25T05:47:35.000Z,444
2022-08-25T05:48:51.000Z,511
2022-08-25T05:50:07.000Z,523
2022-08-25T05:51:23.000Z,382
2022-08-25T05:52:39.000Z,236
2022-08-25T05:53:56.000Z,286
2022-08-25T05:55:12.000Z,466
2022-08-25T05:56:28.000Z,523
2022-08-25T05:57:44.000Z,506
2022-08-25T05:59:00.000Z,489
2022-08-25T06:00:16.000Z,489
2022-08-25T06:01:32.000Z,495
2022-08-25T06:02:48.000Z,478
2022-08-25T06:04:04.000Z,405
2022-08-25T06:05:20.000Z,275
2022-08-25T06:06:37.000Z,236
2022-08-25T06:07:53.000Z,236
2022-08-25T06:09:09.000Z,236
2022-08-25T06:10:25.000Z,241
2022-08-25T06:11:41.000Z,241
2022-08-25T06:12:57.000Z,371
2022-08-25T06:14:14.000Z,579
2022-08-25T06:15:30.000Z,669
2022-08-25T06:16:45.000Z,691
2022-08-25T06:18:01.000Z,691
2022-08-25T06:19:17.000Z,731
2022-08-25T06:20:34.000Z,714
2022-08-25T06:21:50.000Z,748
2022-08-25T06:23:06.000Z,804
2022-08-25T06:24:22.000Z,838
2022-08-25T06:25:38.000Z,855
2022-08-25T06:26:55.000Z,765
2022-08-25T06:28:11.000Z,427
2022-08-25T06:29:27.000Z,281
2022-08-25T06:30:43.000Z,416
2022-08-25T06:32:00.039Z,798
2022-08-25T06:33:15.000Z,961
2022-08-25T06:34:31.000Z,1012
2022-08-25T06:35:47.000Z,995
2022-08-25T06:37:03.000Z,860
2022-08-25T06:38:19.000Z,759
2022-08-25T06:39:35.000Z,478
2022-08-25T06:40:52.000Z,281
2022-08-25T06:42:08.000Z,275
2022-08-25T06:43:24.000Z,270
2022-08-25T06:44:40.000Z,270
2022-08-25T06:45:56.000Z,264
2022-08-25T06:47:13.000Z,275
2022-08-25T06:48:29.000Z,303
2022-08-25T06:49:44.000Z,725
2022-08-25T06:51:00.000Z,1147
2022-08-25T06:52:16.000Z,1192
2022-08-25T06:53:33.000Z,1175
2022-08-25T06:54:49.000Z,1175
2022-08-25T06:56:05.000Z,1226
2022-08-25T06:57:21.000Z,1276
2022-08-25T06:58:37.000Z,1316
2022-08-25T06:59:53.000Z,1361
2022-08-25T07:01:10.000Z,1400
2022-08-25T07:02:26.000Z,1215
2022-08-25T07:03:42.000Z,562
2022-08-25T07:04:58.000Z,286
2022-08-25T07:06:13.000Z,315
2022-08-25T07:07:30.000Z,877
2022-08-25T07:08:46.000Z,1423
2022-08-25T07:10:02.000Z,1417
2022-08-25T07:11:18.000Z,1350
2022-08-25T07:12:34.000Z,1158
2022-08-25T07:13:50.000Z,511
2022-08-25T07:15:06.000Z,286
2022-08-25T07:16:22.000Z,281
2022-08-25T07:17:38.000Z,275
2022-08-25T07:18:54.000Z,275
2022-08-25T07:20:11.000Z,275
2022-08-25T07:21:27.000Z,275
2022-08-25T07:22:43.000Z,275
2022-08-25T07:23:59.000Z,275
2022-08-25T07:25:15.000Z,275
2022-08-25T07:26:31.000Z,281
2022-08-25T07:27:48.000Z,281
2022-08-25T07:29:04.000Z,281
2022-08-25T07:30:19.000Z,281
2022-08-25T07:31:35.000Z,281
2022-08-25T07:32:51.000Z,281
2022-08-25T07:34:08.000Z,281
2022-08-25T07:35:24.000Z,286
2022-08-25T07:36:40.000Z,286
2022-08-25T07:37:56.000Z,286
2022-08-25T07:39:12.000Z,286
2022-08-25T07:40:29.000Z,286
2022-08-25T07:41:45.000Z,286
2022-08-25T07:43:01.000Z,286
2022-08-25T07:44:17.000Z,292
2022-08-25T07:45:33.000Z,292
2022-08-25T07:46:48.000Z,292
2022-08-25T07:48:05.000Z,292
2022-08-25T07:49:21.000Z,292
2022-08-25T07:50:37.000Z,292
2022-08-25T07:51:53.000Z,292
2022-08-25T07:53:09.000Z,292
2022-08-25T07:54:26.000Z,292
2022-08-25T07:55:42.000Z,292
2022-08-25T07:56:58.000Z,292
2022-08-25T07:58:14.000Z,292
2022-08-25T07:59:30.000Z,298
2022-08-25T08:00:47.000Z,298
2022-08-25T08:02:03.000Z,298
2022-08-25T08:03:18.000Z,298
2022-08-25T08:04:34.000Z,298
2022-08-25T08:05:50.000Z,298
2022-08-25T08:07:06.000Z,298
2022-08-25T08:08:23.000Z,298
2022-08-25T08:09:39.000Z,298
2022-08-25T08:10:55.000Z,298
2022-08-25T08:12:11.000Z,298
2022-08-25T08:13:27.000Z,298
2022-08-25T08:14:44.000Z,303
2022-08-25T08:16:00.000Z,303
2022-08-25T08:17:16.000Z,303
2022-08-25T08:18:32.000Z,303
2022-08-25T08:19:47.000Z,303
2022-08-25T08:21:04.000Z,303
2022-08-25T08:22:20.000Z,303
2022-08-25T08:23:36.000Z,303
2022-08-25T08:24:52.000Z,303
2022-08-25T08:26:08.000Z,309
2022-08-25T08:27:25.000Z,309
2022-08-25T08:28:41.000Z,309
2022-08-25T08:29:57.000Z,309
2022-08-25T08:31:13.000Z,315
2022-08-25T08:32:29.000Z,315
2022-08-25T08:33:45.000Z,315
2022-08-25T08:35:02.000Z,315
2022-08-25T08:36:17.000Z,320
2022-08-25T08:37:33.000Z,320
2022-08-25T08:38:49.000Z,331
2022-08-25T08:40:05.000Z,461
2022-08-25T08:41:22.000Z,832
2022-08-25T08:42:38.000Z,1271
2022-08-25T08:43:54.000Z,1243
2022-08-25T08:45:10.000Z,618
2022-08-25T08:46:26.000Z,343
2022-08-25T08:47:43.000Z,320
2022-08-25T08:48:59.000Z,315
2022-08-25T08:50:15.000Z,315
2022-08-25T08:51:31.000Z,315
2022-08-25T08:52:46.000Z,315
2022-08-25T08:54:02.000Z,315
2022-08-25T08:55:19.000Z,315
2022-08-25T08:56:35.000Z,315
2022-08-25T08:57:51.000Z,320
2022-08-25T08:59:07.000Z,320
2022-08-25T09:00:23.000Z,320
2022-08-25T09:01:40.000Z,320
2022-08-25T09:02:56.000Z,320
2022-08-25T09:04:12.000Z,320
2022-08-25T09:05:28.000Z,320
2022-08-25T09:06:44.000Z,320
2022-08-25T09:08:01.000Z,320
2022-08-25T09:09:16.000Z,326
2022-08-25T09:10:32.000Z,337
2022-08-25T09:11:48.000Z,354
2022-08-25T09:13:04.000Z,753
2022-08-25T09:14:20.000Z,2441
2022-08-25T09:15:37.000Z,2233
2022-08-25T09:16:53.000Z,1170
2022-08-25T09:18:09.000Z,410
2022-08-25T09:19:25.000Z,478
2022-08-25T09:20:41.000Z,601
2022-08-25T09:21:58.000Z,787
2022-08-25T09:23:14.000Z,641
2022-08-25T09:24:30.000Z,376
2022-08-25T09:25:45.000Z,348
2022-08-25T09:27:01.000Z,337
2022-08-25T09:28:18.000Z,331
2022-08-25T09:29:34.000Z,326
2022-08-25T09:30:50.000Z,326
2022-08-25T09:32:06.000Z,326
2022-08-25T09:33:22.000Z,326
2022-08-25T09:34:39.000Z,326
2022-08-25T09:35:55.000Z,331
2022-08-25T09:37:11.000Z,331
2022-08-25T09:38:27.000Z,331
2022-08-25T09:39:43.000Z,337
2022-08-25T09:40:59.000Z,343
2022-08-25T09:42:15.000Z,348
2022-08-25T09:43:31.000Z,354
2022-08-25T09:44:47.000Z,348
2022-08-25T09:46:03.000Z,343
2022-08-25T09:47:19.000Z,343
2022-08-25T09:48:36.000Z,348
2022-08-25T09:49:52.000Z,348
2022-08-25T09:51:08.000Z,343
2022-08-25T09:52:24.000Z,343
2022-08-25T09:53:40.000Z,343
2022-08-25T09:54:57.000Z,337
2022-08-25T09:56:13.000Z,337
2022-08-25T09:57:29.000Z,337
2022-08-25T09:58:44.000Z,343
2022-08-25T10:00:00.000Z,343
2022-08-25T10:01:16.000Z,343
2022-08-25T10:02:33.000Z,343
2022-08-25T10:03:49.000Z,343
2022-08-25T10:05:05.000Z,343
2022-08-25T10:06:21.000Z,348
2022-08-25T10:07:37.000Z,354
2022-08-25T10:08:54.000Z,354
2022-08-25T10:10:10.000Z,354
2022-08-25T10:11:26.000Z,365
2022-08-25T10:12:42.000Z,376
2022-08-25T10:13:58.000Z,388
2022-08-25T10:15:14.000Z,416
2022-08-25T10:16:30.000Z,613
2022-08-25T10:17:46.000Z,2295
2022-08-25T10:19:02.000Z,2098
2022-08-25T10:20:18.000Z,2373
2022-08-25T10:21:34.000Z,2143
2022-08-25T10:22:51.000Z,1198
2022-08-25T10:24:07.000Z,1299
2022-08-25T10:25:23.000Z,1395
2022-08-25T10:26:39.000Z,1080
2022-08-25T10:27:55.000Z,1873
2022-08-25T10:29:12.000Z,1805
2022-08-25T10:30:28.000Z,1575
2022-08-25T10:31:43.000Z,1434
2022-08-25T10:32:59.000Z,2205
2022-08-25T10:34:15.000Z,2171
2022-08-25T10:35:32.000Z,2193
2022-08-25T10:36:48.000Z,961
2022-08-25T10:38:04.000Z,2520
2022-08-25T10:39:20.000Z,2148
2022-08-25T10:40:36.000Z,2587
2022-08-25T10:41:53.000Z,2075
2022-08-25T10:43:09.000Z,1108
2022-08-25T10:44:25.000Z,1867
2022-08-25T10:45:41.000Z,3060
2022-08-25T10:46:57.000Z,1895
2022-08-25T10:48:12.000Z,3560
2022-08-25T10:49:29.000Z,2520
2022-08-25T10:50:45.000Z,1305
2022-08-25T10:52:01.000Z,1383
2022-08-25T10:53:17.000Z,2452
2022-08-25T10:54:33.000Z,3054
2022-08-25T10:55:50.000Z,1794
2022-08-25T10:57:06.000Z,3633
2022-08-25T10:58:22.000Z,3841
2022-08-25T10:59:38.000Z,1715
2022-08-25T11:00:54.000Z,1974
2022-08-25T11:02:11.000Z,1434
2022-08-25T11:03:27.000Z,2227
2022-08-25T11:04:42.000Z,3330
2022-08-25T11:05:58.000Z,3161
2022-08-25T11:07:14.000Z,1749
2022-08-25T11:08:31.000Z,3549
2022-08-25T11:09:47.000Z,4044
2022-08-25T11:11:03.000Z,3043
2022-08-25T11:12:19.000Z,1580
2022-08-25T11:13:35.000Z,2801
2022-08-25T11:14:51.000Z,2030
2022-08-25T11:16:08.000Z,1293
2022-08-25T11:17:24.000Z,2233
2022-08-25T11:18:40.000Z,3510
2022-08-25T11:19:56.000Z,3791
2022-08-25T11:21:11.000Z,1845
2022-08-25T11:22:28.000Z,2565
2022-08-25T11:23:44.000Z,3813
2022-08-25T11:25:00.000Z,3481
2022-08-25T11:26:16.000Z,1276
2022-08-25T11:27:32.000Z,590
2022-08-25T11:28:48.000Z,534
2022-08-25T11:30:04.000Z,511
2022-08-25T11:31:20.000Z,506
2022-08-25T11:32:36.000Z,495
2022-08-25T11:33:52.000Z,489
2022-08-25T11:35:09.000Z,489
2022-08-25T11:36:25.000Z,489
2022-08-25T11:37:41.000Z,483
2022-08-25T11:38:57.000Z,483
2022-08-25T11:40:13.000Z,483
2022-08-25T11:41:29.000Z,483
2022-08-25T11:42:46.000Z,489
2022-08-25T11:44:02.000Z,495
2022-08-25T11:45:17.000Z,506
2022-08-25T11:46:33.000Z,506
2022-08-25T11:47:49.000Z,506
2022-08-25T11:49:06.000Z,506
2022-08-25T11:50:22.000Z,506
2022-08-25T11:51:38.000Z,506
2022-08-25T11:52:54.000Z,517
2022-08-25T11:54:10.000Z,523
2022-08-25T11:55:27.000Z,528
2022-08-25T11:56:43.000Z,540
2022-08-25T11:57:59.000Z,556
2022-08-25T11:59:15.000Z,573
2022-08-25T12:00:31.000Z,624
2022-08-25T12:01:47.000Z,1293
2022-08-25T12:03:03.000Z,2272
2022-08-25T12:04:19.000Z,1620
2022-08-25T12:05:35.000Z,2941
2022-08-25T12:06:51.000Z,3757
2022-08-25T12:08:07.000Z,3830
2022-08-25T12:09:24.000Z,3881
2022-08-25T12:10:40.000Z,2424
2022-08-25T12:11:56.000Z,2362
2022-08-25T12:13:12.000Z,3903
2022-08-25T12:14:28.000Z,4044
2022-08-25T12:15:45.000Z,3965
2022-08-25T12:17:01.000Z,4033
2022-08-25T12:18:16.000Z,3931
2022-08-25T12:19:32.000Z,2677
2022-08-25T12:20:48.000Z,2486
2022-08-25T12:22:05.000Z,4263
2022-08-25T12:23:21.000Z,4201
2022-08-25T12:24:37.000Z,3988
2022-08-25T12:25:53.000Z,3656
2022-08-25T12:27:09.000Z,2176
2022-08-25T12:28:26.000Z,1220
2022-08-25T12:29:42.000Z,1839
2022-08-25T12:30:58.000Z,3099
2022-08-25T12:32:14.000Z,3549
2022-08-25T12:33:30.000Z,3937
2022-08-25T12:34:46.000Z,4055
2022-08-25T12:36:02.000Z,3920
2022-08-25T12:37:18.000Z,2756
2022-08-25T12:38:34.000Z,1935
2022-08-25T12:39:50.000Z,3560
2022-08-25T12:41:06.000Z,3960
2022-08-25T12:42:23.000Z,3937
2022-08-25T12:43:39.000Z,3802
2022-08-25T12:44:55.000Z,4241
2022-08-25T12:46:11.000Z,3943
2022-08-25T12:47:27.000Z,3954
2022-08-25T12:48:44.000Z,2829
2022-08-25T12:50:00.000Z,1974
2022-08-25T12:51:15.000Z,3555
2022-08-25T12:52:31.000Z,3892
2022-08-25T12:53:47.000Z,3858
2022-08-25T12:55:04.000Z,3628
2022-08-25T12:56:20.000Z,3616
2022-08-25T12:57:36.000Z,3639
2022-08-25T12:58:52.000Z,3375
2022-08-25T13:00:08.000Z,2733
2022-08-25T13:01:25.000Z,2205
2022-08-25T13:02:41.000Z,1338
2022-08-25T13:03:57.000Z,1732
2022-08-25T13:05:13.000Z,1912
2022-08-25T13:06:29.000Z,1946
2022-08-25T13:07:44.000Z,2227
2022-08-25T13:09:01.000Z,2323
2022-08-25T13:10:17.000Z,2666
2022-08-25T13:11:33.000Z,3031
2022-08-25T13:12:49.000Z,2311
2022-08-25T13:14:05.000Z,1603
2022-08-25T13:15:22.000Z,3026
2022-08-25T13:16:38.000Z,3515
2022-08-25T13:17:54.000Z,3318
2022-08-25T13:19:10.000Z,3397
2022-08-25T13:20:26.000Z,3543
2022-08-25T13:21:43.000Z,3493
2022-08-25T13:22:59.000Z,3313
2022-08-25T13:24:14.000Z,3228
2022-08-25T13:25:30.000Z,3206
2022-08-25T13:26:46.000Z,3223
2022-08-25T13:28:03.000Z,2649
2022-08-25T13:29:19.000Z,1715
2022-08-25T13:30:35.000Z,2885
2022-08-25T13:31:51.000Z,3363
2022-08-25T13:33:07.000Z,3431
2022-08-25T13:34:23.000Z,3380
2022-08-25T13:35:40.000Z,3397
2022-08-25T13:36:56.000Z,3465
2022-08-25T13:38:12.000Z,3380
2022-08-25T13:39:28.000Z,3268
2022-08-25T13:40:43.000Z,3273
2022-08-25T13:42:00.000Z,3223
2022-08-25T13:43:16.000Z,3268
2022-08-25T13:44:32.000Z,2626
2022-08-25T13:45:48.000Z,1704
2022-08-25T13:47:04.000Z,2885
2022-08-25T13:48:21.000Z,3330
2022-08-25T13:49:37.000Z,3223
2022-08-25T13:50:53.000Z,3133
2022-08-25T13:52:09.000Z,3155
2022-08-25T13:53:25.000Z,3048
2022-08-25T13:54:42.000Z,3060
2022-08-25T13:55:58.000Z,3043
2022-08-25T13:57:13.000Z,3099
2022-08-25T13:58:29.000Z,2902
2022-08-25T13:59:45.000Z,2593
2022-08-25T14:01:02.000Z,1681
2022-08-25T14:02:18.000Z,1175
2022-08-25T14:03:34.000Z,1411
2022-08-25T14:04:50.000Z,1901
2022-08-25T14:06:06.000Z,2210
2022-08-25T14:07:22.000Z,2520
2022-08-25T14:08:39.000Z,2733
2022-08-25T14:09:55.000Z,2761
2022-08-25T14:11:11.000Z,2812
2022-08-25T14:12:27.000Z,2880
2022-08-25T14:13:42.000Z,2885
2022-08-25T14:14:59.000Z,2885
2022-08-25T14:16:15.000Z,2902
2022-08-25T14:17:31.000Z,2925
2022-08-25T14:18:47.000Z,2711
2022-08-25T14:20:03.000Z,1715
2022-08-25T14:21:20.000Z,1738
2022-08-25T14:22:36.000Z,2587
2022-08-25T14:23:52.000Z,2655
2022-08-25T14:25:08.000Z,2632
2022-08-25T14:26:24.000Z,2683
2022-08-25T14:27:41.000Z,2705
2022-08-25T14:28:57.000Z,2632
2022-08-25T14:30:12.000Z,2593
2022-08-25T14:31:28.000Z,2626
2022-08-25T14:32:44.000Z,2643
2022-08-25T14:34:00.000Z,1659
2022-08-25T14:35:17.000Z,2475
2022-08-25T14:36:33.000Z,2548
2022-08-25T14:37:49.000Z,2508
2022-08-25T14:39:05.000Z,2340
2022-08-25T14:40:21.000Z,1625
2022-08-25T14:41:38.000Z,1344
2022-08-25T14:42:54.000Z,2193
2022-08-25T14:44:10.000Z,2401
2022-08-25T14:45:26.000Z,2295
2022-08-25T14:46:41.000Z,2188
2022-08-25T14:47:58.000Z,2306
2022-08-25T14:49:14.000Z,2244
2022-08-25T14:50:30.000Z,2154
2022-08-25T14:51:46.000Z,466
2022-08-25T14:53:02.000Z,427
2022-08-25T14:54:19.000Z,427
2022-08-25T14:55:35.000Z,483
2022-08-25T14:56:51.000Z,568
2022-08-25T14:58:07.000Z,2250
2022-08-25T14:59:23.000Z,2070
2022-08-25T15:00:39.000Z,1884
2022-08-25T15:01:56.000Z,1333
2022-08-25T15:03:11.000Z,1057
2022-08-25T15:04:27.000Z,1563
2022-08-25T15:05:43.000Z,1878
2022-08-25T15:06:59.000Z,1856
2022-08-25T15:08:16.000Z,1856
2022-08-25T15:09:32.000Z,1800
2022-08-25T15:10:48.000Z,1715
2022-08-25T15:12:04.000Z,1732
2022-08-25T15:13:20.000Z,1890
2022-08-25T15:14:37.000Z,1884
2022-08-25T15:15:53.000Z,1861
2022-08-25T15:17:09.000Z,1873
2022-08-25T15:18:25.000Z,1873
2022-08-25T15:19:40.000Z,1856
2022-08-25T15:20:57.000Z,1895
2022-08-25T15:22:13.000Z,1873
2022-08-25T15:23:29.000Z,1468
2022-08-25T15:24:45.000Z,888
2022-08-25T15:26:01.000Z,1051
2022-08-25T15:27:17.000Z,1530
2022-08-25T15:28:34.000Z,1693
2022-08-25T15:29:50.000Z,1209
2022-08-25T15:31:06.000Z,1642
2022-08-25T15:32:22.000Z,1558
2022-08-25T15:33:38.000Z,1659
2022-08-25T15:34:55.000Z,1344
2022-08-25T15:36:10.000Z,1468
2022-08-25T15:37:26.000Z,1440
2022-08-25T15:38:42.000Z,1451
2022-08-25T15:39:58.000Z,1361
2022-08-25T15:41:15.000Z,1327
2022-08-25T15:42:31.000Z,1220
2022-08-25T15:43:46.000Z,1113
2022-08-25T15:45:02.000Z,905
2022-08-25T15:46:18.000Z,725
2022-08-25T15:47:35.000Z,697
2022-08-25T15:48:51.000Z,826
2022-08-25T15:50:07.000Z,961
2022-08-25T15:51:23.000Z,990
2022-08-25T15:52:39.000Z,1001
2022-08-25T15:53:56.000Z,984
2022-08-25T15:55:12.000Z,967
2022-08-25T15:56:28.000Z,945
2022-08-25T15:57:44.000Z,922
2022-08-25T15:59:00.000Z,843
2022-08-25T16:00:15.000Z,748
2022-08-25T16:01:32.000Z,680
2022-08-25T16:02:48.000Z,630
2022-08-25T16:04:04.000Z,585
2022-08-25T16:05:20.000Z,596
2022-08-25T16:06:36.000Z,652
2022-08-25T16:07:53.000Z,680
2022-08-25T16:09:09.000Z,708
2022-08-25T16:10:25.000Z,742
2022-08-25T16:11:41.000Z,798
2022-08-25T16:12:57.000Z,860
2022-08-25T16:14:14.000Z,933
2022-08-25T16:15:30.000Z,1063
2022-08-25T16:16:45.000Z,1147
2022-08-25T16:18:01.000Z,1153
2022-08-25T16:19:17.000Z,1068
2022-08-25T16:20:34.000Z,939
2022-08-25T16:21:50.000Z,832
2022-08-25T16:23:06.000Z,793
2022-08-25T16:24:22.000Z,770
2022-08-25T16:25:38.000Z,675
2022-08-25T16:26:54.000Z,472
2022-08-25T16:28:11.000Z,427
2022-08-25T16:29:27.000Z,495
2022-08-25T16:30:43.000Z,534
2022-08-25T16:31:59.000Z,455
2022-08-25T16:33:14.000Z,376
2022-08-25T16:34:31.000Z,365
2022-08-25T16:35:47.000Z,354
2022-08-25T16:37:03.000Z,348
2022-08-25T16:38:19.000Z,343
2022-08-25T16:39:35.000Z,331
2022-08-25T16:40:52.000Z,326
2022-08-25T16:42:08.000Z,320
2022-08-25T16:43:24.000Z,303
2022-08-25T16:44:40.000Z,309
2022-08-25T16:45:56.000Z,303
2022-08-25T16:47:13.000Z,303
2022-08-25T16:48:29.000Z,298
2022-08-25T16:49:44.000Z,298
2022-08-25T16:51:00.000Z,292
2022-08-25T16:52:16.000Z,286
2022-08-25T16:53:32.000Z,286
2022-08-25T16:54:49.188Z,281
2022-08-25T16:56:05.000Z,281
2022-08-25T16:57:21.000Z,275
2022-08-25T16:58:37.000Z,275
2022-08-25T16:59:53.000Z,270
2022-08-25T17:01:10.000Z,264
2022-08-25T17:02:26.000Z,258
2022-08-25T17:03:42.000Z,258
2022-08-25T17:04:58.000Z,253
2022-08-25T17:06:13.000Z,247
2022-08-25T17:07:30.000Z,247
2022-08-25T17:08:46.000Z,241
2022-08-25T17:10:02.000Z,236
2022-08-25T17:11:18.000Z,236
2022-08-25T17:12:34.000Z,230
2022-08-25T17:13:51.000Z,230
2022-08-25T17:15:07.000Z,225
2022-08-25T17:16:23.000Z,219
2022-08-25T17:17:39.000Z,213
2022-08-25T17:18:55.000Z,213
2022-08-25T17:20:12.000Z,208
2022-08-25T17:21:28.000Z,202
2022-08-25T17:22:43.000Z,196
2022-08-25T17:23:59.000Z,196
2022-08-25T17:25:15.000Z,191
2022-08-25T17:26:31.000Z,185
2022-08-25T17:27:48.000Z,185
2022-08-25T17:29:04.000Z,185
2022-08-25T17:30:20.000Z,180
2022-08-25T17:31:36.000Z,174
2022-08-25T17:32:52.000Z,174
2022-08-25T17:34:09.000Z,168
2022-08-25T17:35:25.000Z,163